sensor_id;sensor_type;location;lat;lon;timestamp;P1;durP1;ratioP1;P2;durP2;ratioP2
55663;SDS011;41540;57.880;12.164;2023-02-28T00:04:33;2.58;;;2.08;;
55663;SDS011;41540;57.880;12.164;2023-02-28T00:14:33;2.05;;;1.80;;
55663;SDS011;41540;57.880;12.164;2023-02-28T00:24:33;2.28;;;1.85;;
55663;SDS011;41540;57.880;12.164;2023-02-28T00:34:34;1.85;;;1.75;;
55663;SDS011;41540;57.880;12.164;2023-02-28T00:44:37;2.47;;;2.28;;
55663;SDS011;41540;57.880;12.164;2023-02-28T00:54:37;2.65;;;2.35;;
55663;SDS011;41540;57.880;12.164;2023-02-28T01:04:38;2.92;;;2.63;;
55663;SDS011;41540;57.880;12.164;2023-02-28T01:14:38;6.72;;;2.22;;
55663;SDS011;41540;57.880;12.164;2023-02-28T01:24:38;2.30;;;2.10;;
55663;SDS011;41540;57.880;12.164;2023-02-28T01:34:38;2.30;;;1.83;;
55663;SDS011;41540;57.880;12.164;2023-02-28T01:54:55;4.35;;;2.45;;
55663;SDS011;41540;57.880;12.164;2023-02-28T02:04:59;6.20;;;2.03;;
55663;SDS011;41540;57.880;12.164;2023-02-28T02:35:30;2.38;;;1.63;;
55663;SDS011;41540;57.880;12.164;2023-02-28T02:45:32;1.70;;;1.60;;
55663;SDS011;41540;57.880;12.164;2023-02-28T02:55:37;1.50;;;1.40;;
55663;SDS011;41540;57.880;12.164;2023-02-28T03:05:40;2.83;;;2.10;;
55663;SDS011;41540;57.880;12.164;2023-02-28T03:15:46;2.38;;;1.75;;
55663;SDS011;41540;57.880;12.164;2023-02-28T03:25:55;2.30;;;1.90;;
55663;SDS011;41540;57.880;12.164;2023-02-28T03:36:03;2.30;;;1.90;;
55663;SDS011;41540;57.880;12.164;2023-02-28T03:46:05;1.73;;;1.50;;
55663;SDS011;41540;57.880;12.164;2023-02-28T03:56:24;1.80;;;1.65;;
55663;SDS011;41540;57.880;12.164;2023-02-28T04:06:26;2.72;;;1.95;;
55663;SDS011;41540;57.880;12.164;2023-02-28T04:16:27;1.63;;;1.50;;
55663;SDS011;41540;57.880;12.164;2023-02-28T04:26:28;2.05;;;1.60;;
55663;SDS011;41540;57.880;12.164;2023-02-28T04:36:28;1.77;;;1.65;;
55663;SDS011;41540;57.880;12.164;2023-02-28T04:46:29;2.00;;;1.90;;
55663;SDS011;41540;57.880;12.164;2023-02-28T04:56:30;4.70;;;1.77;;
55663;SDS011;41540;57.880;12.164;2023-02-28T05:06:33;1.73;;;1.63;;
55663;SDS011;41540;57.880;12.164;2023-02-28T05:16:33;2.08;;;1.90;;
55663;SDS011;41540;57.880;12.164;2023-02-28T05:26:35;1.60;;;1.50;;
55663;SDS011;41540;57.880;12.164;2023-02-28T05:36:36;1.83;;;1.60;;
55663;SDS011;41540;57.880;12.164;2023-02-28T05:46:36;1.92;;;1.73;;
55663;SDS011;41540;57.880;12.164;2023-02-28T05:56:37;2.25;;;1.73;;
55663;SDS011;41540;57.880;12.164;2023-02-28T06:27:03;1.38;;;1.27;;
55663;SDS011;41540;57.880;12.164;2023-02-28T06:37:04;1.67;;;1.40;;
55663;SDS011;41540;57.880;12.164;2023-02-28T06:47:05;1.52;;;1.15;;
55663;SDS011;41540;57.880;12.164;2023-02-28T06:57:05;1.58;;;1.45;;
55663;SDS011;41540;57.880;12.164;2023-02-28T07:07:06;1.38;;;1.27;;
55663;SDS011;41540;57.880;12.164;2023-02-28T07:17:19;2.35;;;1.58;;
55663;SDS011;41540;57.880;12.164;2023-02-28T07:27:58;1.95;;;1.75;;
55663;SDS011;41540;57.880;12.164;2023-02-28T07:38:47;3.97;;;1.80;;
55663;SDS011;41540;57.880;12.164;2023-02-28T08:21:05;1.40;;;1.30;;
55663;SDS011;41540;57.880;12.164;2023-02-28T08:31:09;1.02;;;0.98;;
55663;SDS011;41540;57.880;12.164;2023-02-28T08:41:10;2.00;;;1.50;;
55663;SDS011;41540;57.880;12.164;2023-02-28T08:51:13;2.65;;;0.98;;
55663;SDS011;41540;57.880;12.164;2023-02-28T09:01:21;4.53;;;3.13;;
55663;SDS011;41540;57.880;12.164;2023-02-28T09:11:21;1.30;;;1.13;;
55663;SDS011;41540;57.880;12.164;2023-02-28T09:21:22;1.15;;;0.98;;
55663;SDS011;41540;57.880;12.164;2023-02-28T09:31:23;2.13;;;1.15;;
55663;SDS011;41540;57.880;12.164;2023-02-28T09:41:25;1.47;;;1.37;;
55663;SDS011;41540;57.880;12.164;2023-02-28T10:01:57;2.83;;;1.48;;
55663;SDS011;41540;57.880;12.164;2023-02-28T10:12:02;6.60;;;1.67;;
55663;SDS011;41540;57.880;12.164;2023-02-28T10:32:03;2.33;;;1.02;;
55663;SDS011;41540;57.880;12.164;2023-02-28T10:42:04;0.90;;;0.80;;
55663;SDS011;41540;57.880;12.164;2023-02-28T10:52:07;1.20;;;1.10;;
55663;SDS011;41540;57.880;12.164;2023-02-28T11:02:42;1.60;;;1.50;;
55663;SDS011;41540;57.880;12.164;2023-02-28T11:12:38;1.25;;;1.15;;
55663;SDS011;41540;57.880;12.164;2023-02-28T11:22:43;1.13;;;1.00;;
55663;SDS011;41540;57.880;12.164;2023-02-28T11:32:48;1.13;;;1.02;;
55663;SDS011;41540;57.880;12.164;2023-02-28T11:52:52;1.50;;;1.40;;
55663;SDS011;41540;57.880;12.164;2023-02-28T12:03:03;3.35;;;1.45;;
55663;SDS011;41540;57.880;12.164;2023-02-28T12:33:32;1.40;;;1.10;;
55663;SDS011;41540;57.880;12.164;2023-02-28T12:43:38;1.48;;;1.38;;
55663;SDS011;41540;57.880;12.164;2023-02-28T12:53:48;2.63;;;1.60;;
55663;SDS011;41540;57.880;12.164;2023-02-28T14:05:19;1.02;;;1.02;;
55663;SDS011;41540;57.880;12.164;2023-02-28T14:25:40;10.57;;;0.90;;
55663;SDS011;41540;57.880;12.164;2023-02-28T14:35:53;0.82;;;0.75;;
55663;SDS011;41540;57.880;12.164;2023-02-28T14:46:01;1.17;;;1.00;;
55663;SDS011;41540;57.880;12.164;2023-02-28T14:56:02;1.00;;;0.98;;
55663;SDS011;41540;57.880;12.164;2023-02-28T15:06:12;2.90;;;1.10;;
55663;SDS011;41540;57.880;12.164;2023-02-28T15:16:14;1.40;;;1.00;;
55663;SDS011;41540;57.880;12.164;2023-02-28T15:26:16;1.00;;;0.90;;
55663;SDS011;41540;57.880;12.164;2023-02-28T15:36:17;1.33;;;1.23;;
55663;SDS011;41540;57.880;12.164;2023-02-28T15:46:20;1.93;;;1.63;;
55663;SDS011;41540;57.880;12.164;2023-02-28T15:56:25;1.40;;;1.30;;
55663;SDS011;41540;57.880;12.164;2023-02-28T16:06:39;5.65;;;1.75;;
55663;SDS011;41540;57.880;12.164;2023-02-28T16:16:42;1.77;;;1.38;;
55663;SDS011;41540;57.880;12.164;2023-02-28T16:26:45;4.75;;;1.75;;
55663;SDS011;41540;57.880;12.164;2023-02-28T16:36:47;2.33;;;1.10;;
55663;SDS011;41540;57.880;12.164;2023-02-28T16:46:47;1.75;;;1.63;;
55663;SDS011;41540;57.880;12.164;2023-02-28T16:56:48;1.45;;;1.35;;
55663;SDS011;41540;57.880;12.164;2023-02-28T17:06:48;3.57;;;1.50;;
55663;SDS011;41540;57.880;12.164;2023-02-28T17:16:49;1.67;;;1.52;;
55663;SDS011;41540;57.880;12.164;2023-02-28T17:26:49;8.00;;;2.25;;
55663;SDS011;41540;57.880;12.164;2023-02-28T17:36:50;4.03;;;3.63;;
55663;SDS011;41540;57.880;12.164;2023-02-28T17:46:51;3.92;;;2.05;;
55663;SDS011;41540;57.880;12.164;2023-02-28T17:56:51;2.40;;;2.20;;
55663;SDS011;41540;57.880;12.164;2023-02-28T18:06:54;2.55;;;2.35;;
55663;SDS011;41540;57.880;12.164;2023-02-28T18:16:59;3.65;;;2.35;;
55663;SDS011;41540;57.880;12.164;2023-02-28T18:27:00;5.32;;;2.97;;
55663;SDS011;41540;57.880;12.164;2023-02-28T18:37:03;3.33;;;2.75;;
55663;SDS011;41540;57.880;12.164;2023-02-28T18:47:03;5.07;;;2.72;;
55663;SDS011;41540;57.880;12.164;2023-02-28T18:57:06;3.38;;;2.70;;
55663;SDS011;41540;57.880;12.164;2023-02-28T19:07:16;3.88;;;3.47;;
55663;SDS011;41540;57.880;12.164;2023-02-28T19:17:27;4.07;;;2.95;;
55663;SDS011;41540;57.880;12.164;2023-02-28T19:27:31;3.47;;;2.33;;
55663;SDS011;41540;57.880;12.164;2023-02-28T19:37:37;4.38;;;2.75;;
55663;SDS011;41540;57.880;12.164;2023-02-28T19:47:38;6.13;;;2.90;;
55663;SDS011;41540;57.880;12.164;2023-02-28T20:07:52;3.17;;;2.67;;
55663;SDS011;41540;57.880;12.164;2023-02-28T20:17:55;3.20;;;2.90;;
55663;SDS011;41540;57.880;12.164;2023-02-28T20:27:56;5.80;;;3.65;;
55663;SDS011;41540;57.880;12.164;2023-02-28T20:37:56;3.28;;;2.72;;
55663;SDS011;41540;57.880;12.164;2023-02-28T20:47:57;5.80;;;3.33;;
55663;SDS011;41540;57.880;12.164;2023-02-28T20:57:57;3.83;;;2.72;;
55663;SDS011;41540;57.880;12.164;2023-02-28T21:07:57;7.00;;;2.92;;
55663;SDS011;41540;57.880;12.164;2023-02-28T21:17:58;6.10;;;2.80;;
55663;SDS011;41540;57.880;12.164;2023-02-28T21:27:58;2.90;;;2.35;;
55663;SDS011;41540;57.880;12.164;2023-02-28T21:37:58;2.63;;;2.28;;
55663;SDS011;41540;57.880;12.164;2023-02-28T21:47:59;5.63;;;2.88;;
55663;SDS011;41540;57.880;12.164;2023-02-28T21:57:59;4.68;;;2.10;;
55663;SDS011;41540;57.880;12.164;2023-02-28T22:08:00;4.32;;;3.38;;
55663;SDS011;41540;57.880;12.164;2023-02-28T22:18:00;6.93;;;2.13;;
55663;SDS011;41540;57.880;12.164;2023-02-28T22:28:01;4.40;;;2.80;;
55663;SDS011;41540;57.880;12.164;2023-02-28T22:38:04;3.85;;;2.38;;
55663;SDS011;41540;57.880;12.164;2023-02-28T22:48:05;4.93;;;2.85;;
55663;SDS011;41540;57.880;12.164;2023-02-28T22:58:05;2.90;;;2.35;;
55663;SDS011;41540;57.880;12.164;2023-02-28T23:08:05;2.85;;;1.65;;
55663;SDS011;41540;57.880;12.164;2023-02-28T23:18:06;1.85;;;1.65;;
55663;SDS011;41540;57.880;12.164;2023-02-28T23:28:07;3.50;;;2.55;;
55663;SDS011;41540;57.880;12.164;2023-02-28T23:38:08;2.58;;;2.35;;
55663;SDS011;41540;57.880;12.164;2023-02-28T23:48:09;3.67;;;2.90;;
55663;SDS011;41540;57.880;12.164;2023-02-28T23:58:10;2.22;;;2.03;;
